createdAt,value
2018-05-16T00:04:39.410Z,100784
2018-05-16T00:09:31.459Z,100781
2018-05-16T00:14:22.932Z,100775
2018-05-16T00:19:15.198Z,100779
2018-05-16T00:24:07.464Z,100777
2018-05-16T00:28:59.001Z,100781
2018-05-16T00:33:50.538Z,100787
2018-05-16T00:38:42.011Z,100785
2018-05-16T00:43:33.542Z,100795
2018-05-16T00:48:25.011Z,100794
2018-05-16T00:53:17.236Z,100798
2018-05-16T00:58:08.723Z,100797
2018-05-16T01:03:00.223Z,100803
2018-05-16T01:07:52.469Z,100811
2018-05-16T01:12:44.721Z,100815
2018-05-16T01:17:36.596Z,100820
2018-05-16T01:22:28.102Z,100842
2018-05-16T01:27:20.319Z,100843
2018-05-16T01:32:11.832Z,100871
2018-05-16T01:37:03.405Z,100868
2018-05-16T01:41:54.903Z,100864
2018-05-16T01:46:46.391Z,100877
2018-05-16T01:51:38.622Z,100892
2018-05-16T01:56:30.150Z,100891
2018-05-16T02:01:21.667Z,100918
2018-05-16T02:06:13.207Z,100907
2018-05-16T02:11:04.720Z,100907
2018-05-16T02:15:56.220Z,100917
2018-05-16T02:20:47.694Z,100898
2018-05-16T02:25:39.196Z,100905
2018-05-16T02:30:30.711Z,100894
2018-05-16T02:35:22.945Z,100880
2018-05-16T02:40:15.206Z,100870
2018-05-16T02:45:07.436Z,100881
2018-05-16T02:49:58.942Z,100863
2018-05-16T02:54:50.423Z,100845
2018-05-16T02:59:42.633Z,100837
2018-05-16T03:04:34.163Z,100858
2018-05-16T03:09:25.666Z,100863
2018-05-16T03:14:17.181Z,100858
2018-05-16T03:19:09.429Z,100853
2018-05-16T03:24:01.707Z,100854
2018-05-16T03:28:53.235Z,100856
2018-05-16T03:33:44.721Z,100859
2018-05-16T03:38:36.227Z,100874
2018-05-16T03:43:27.819Z,100884
2018-05-16T03:48:20.040Z,100881
2018-05-16T03:53:12.307Z,100892
2018-05-16T03:58:23.274Z,100880
2018-05-16T04:03:33.363Z,100887
2018-05-16T04:08:24.864Z,100887
2018-05-16T04:13:16.358Z,100879
2018-05-16T04:18:07.857Z,100887
2018-05-16T04:22:59.395Z,100891
2018-05-16T04:27:50.883Z,100908
2018-05-16T04:32:42.443Z,100918
2018-05-16T04:37:33.904Z,100934
2018-05-16T04:42:25.389Z,100941
2018-05-16T04:47:16.866Z,100942
2018-05-16T04:52:08.352Z,100939
2018-05-16T04:56:59.930Z,100942
2018-05-16T05:01:52.188Z,100941
2018-05-16T05:06:44.438Z,100936
2018-05-16T05:11:35.910Z,100933
2018-05-16T05:16:27.438Z,100931
2018-05-16T05:21:18.912Z,100928
2018-05-16T05:26:10.447Z,100927
2018-05-16T05:31:02.699Z,100926
2018-05-16T05:35:54.209Z,100928
2018-05-16T05:40:45.712Z,100931
2018-05-16T05:45:37.967Z,100928
2018-05-16T05:50:29.483Z,100933
2018-05-16T05:55:21.750Z,100936
2018-05-16T06:00:14.051Z,100936
2018-05-16T06:05:06.219Z,100938
2018-05-16T06:09:57.722Z,100931
2018-05-16T06:14:49.259Z,100939
2018-05-16T06:19:41.585Z,100941
2018-05-16T06:24:33.823Z,100943
2018-05-16T06:29:26.144Z,100941
2018-05-16T06:34:17.644Z,100944
2018-05-16T06:39:09.229Z,100944
2018-05-16T06:44:00.696Z,100947
2018-05-16T06:48:52.271Z,100951
2018-05-16T06:53:43.784Z,100947
2018-05-16T06:58:35.873Z,100937
2018-05-16T07:03:28.121Z,100941
2018-05-16T07:08:19.652Z,100956
2018-05-16T07:13:11.413Z,100951
2018-05-16T07:18:02.985Z,100957
2018-05-16T07:22:54.597Z,100953
2018-05-16T07:27:46.194Z,100961
2018-05-16T07:32:37.743Z,100976
2018-05-16T07:37:30.029Z,100969
2018-05-16T07:42:21.511Z,100964
2018-05-16T07:47:13.087Z,100963
2018-05-16T07:52:04.567Z,100963
2018-05-16T07:56:56.056Z,100965
2018-05-16T08:01:47.550Z,100970
2018-05-16T08:06:39.071Z,100979
2018-05-16T08:11:30.572Z,100977
2018-05-16T08:16:22.135Z,100972
2018-05-16T08:21:13.643Z,100963
2018-05-16T08:26:05.146Z,100983
2018-05-16T08:30:56.644Z,100981
2018-05-16T08:35:48.215Z,100977
2018-05-16T08:40:39.735Z,100983
2018-05-16T08:45:32.021Z,100990
2018-05-16T08:50:23.502Z,100986
2018-05-16T08:55:15.021Z,100989
2018-05-16T09:00:06.539Z,100981
2018-05-16T09:04:58.052Z,100987
2018-05-16T09:09:49.557Z,100994
2018-05-16T09:14:41.819Z,100990
2018-05-16T09:19:34.039Z,100992
2018-05-16T09:24:25.549Z,101000
2018-05-16T09:29:17.165Z,101007
2018-05-16T09:34:08.647Z,101003
2018-05-16T09:39:00.143Z,100998
2018-05-16T09:43:51.655Z,101012
2018-05-16T09:48:43.152Z,101012
2018-05-16T09:53:34.671Z,101013
2018-05-16T09:58:26.306Z,101010
2018-05-16T10:03:17.805Z,101014
2018-05-16T10:08:09.306Z,101016
2018-05-16T10:13:01.864Z,101019
2018-05-16T10:17:54.182Z,101030
2018-05-16T10:22:45.773Z,101033
2018-05-16T10:27:38.110Z,101029
2018-05-16T10:32:30.361Z,101033
2018-05-16T10:37:22.607Z,101037
2018-05-16T10:42:14.826Z,101041
2018-05-16T10:47:06.342Z,101040
2018-05-16T10:51:57.830Z,101047
2018-05-16T10:56:50.119Z,101049
2018-05-16T11:01:41.899Z,101050
2018-05-16T11:06:33.503Z,101050
2018-05-16T11:11:25.054Z,101063
2018-05-16T11:16:16.569Z,101054
2018-05-16T11:21:08.119Z,101052
2018-05-16T11:26:00.357Z,101047
2018-05-16T11:30:51.881Z,101046
2018-05-16T11:35:43.363Z,101048
2018-05-16T11:40:35.588Z,101045
2018-05-16T11:45:27.104Z,101049
2018-05-16T11:50:18.656Z,101041
2018-05-16T11:55:10.256Z,101048
2018-05-16T12:00:02.635Z,101056
2018-05-16T12:04:54.646Z,101047
2018-05-16T12:09:46.128Z,101047
2018-05-16T12:14:37.716Z,101049
2018-05-16T12:19:29.187Z,101038
2018-05-16T12:24:20.697Z,101037
2018-05-16T12:29:12.251Z,101033
2018-05-16T12:34:03.725Z,101047
2018-05-16T12:38:56.804Z,101047
2018-05-16T12:43:49.054Z,101050
2018-05-16T12:48:40.623Z,101073
2018-05-16T12:53:32.170Z,101067
2018-05-16T12:58:23.668Z,101070
2018-05-16T13:03:15.160Z,101082
2018-05-16T13:08:06.692Z,101084
2018-05-16T13:12:58.219Z,101085
2018-05-16T13:17:49.700Z,101089
2018-05-16T13:22:41.228Z,101097
2018-05-16T13:27:33.461Z,101114
2018-05-16T13:32:25.734Z,101119
2018-05-16T13:37:17.242Z,101126
2018-05-16T13:42:09.483Z,101134
2018-05-16T13:47:00.998Z,101138
2018-05-16T13:51:52.503Z,101147
2018-05-16T13:56:43.993Z,101143
2018-05-16T14:01:35.505Z,101129
2018-05-16T14:06:27.120Z,101119
2018-05-16T14:11:19.324Z,101112
2018-05-16T14:16:11.533Z,101113
2018-05-16T14:21:03.044Z,101104
2018-05-16T14:25:56.399Z,101106
2018-05-16T14:30:47.960Z,101101
2018-05-16T14:35:39.447Z,101093
2018-05-16T14:40:31.702Z,101072
2018-05-16T14:45:23.977Z,101061
2018-05-16T14:50:15.454Z,101060
2018-05-16T14:55:06.990Z,101045
2018-05-16T14:59:58.512Z,101043
2018-05-16T15:04:50.021Z,101037
2018-05-16T15:09:41.514Z,101039
2018-05-16T15:14:33.021Z,101032
2018-05-16T15:19:25.345Z,101024
2018-05-16T15:24:16.863Z,101015
2018-05-16T15:29:08.388Z,101015
2018-05-16T15:34:00.626Z,101006
2018-05-16T15:38:52.883Z,100998
2018-05-16T15:43:46.067Z,101003
2018-05-16T15:48:37.681Z,101001
2018-05-16T15:53:30.024Z,100999
2018-05-16T15:58:22.401Z,100998
2018-05-16T16:03:14.665Z,100999
2018-05-16T16:08:06.203Z,100996
2018-05-16T16:12:57.742Z,100995
2018-05-16T16:17:49.252Z,101013
2018-05-16T16:22:41.514Z,101048
2018-05-16T16:27:33.075Z,101074
2018-05-16T16:32:24.584Z,101067
2018-05-16T16:37:16.838Z,101079
2018-05-16T16:42:08.386Z,101069
2018-05-16T16:46:59.932Z,101065
2018-05-16T16:51:51.486Z,101065
2018-05-16T16:56:43.021Z,101077
2018-05-16T17:01:34.540Z,101091
2018-05-16T17:06:26.062Z,101089
2018-05-16T17:11:17.559Z,101097
2018-05-16T17:16:09.841Z,101102
2018-05-16T17:21:01.371Z,101106
2018-05-16T17:25:52.863Z,101176
2018-05-16T17:30:44.378Z,101124
2018-05-16T17:35:35.876Z,101119
2018-05-16T17:40:27.359Z,101182
2018-05-16T17:45:18.883Z,101186
2018-05-16T17:50:10.447Z,101170
2018-05-16T17:55:02.747Z,101130
2018-05-16T17:59:54.271Z,101150
2018-05-16T18:04:45.785Z,101106
2018-05-16T18:09:37.279Z,101165
2018-05-16T18:19:58.153Z,101193
2018-05-16T18:24:50.386Z,101200
2018-05-16T18:29:41.932Z,101242
2018-05-16T18:34:34.867Z,101288
2018-05-16T18:39:26.432Z,101310
2018-05-16T18:44:18.735Z,101323
2018-05-16T18:49:10.307Z,101333
2018-05-16T18:54:01.895Z,101334
2018-05-16T18:58:54.431Z,101332
2018-05-16T19:03:47.031Z,101322
2018-05-16T19:08:38.559Z,101323
2018-05-16T19:13:30.055Z,101320
2018-05-16T19:18:22.394Z,101266
2018-05-16T19:23:14.625Z,101256
2018-05-16T19:28:06.217Z,101246
2018-05-16T19:32:57.743Z,101257
2018-05-16T19:37:49.268Z,101261
2018-05-16T19:42:41.523Z,101274
2018-05-16T19:47:33.063Z,101285
2018-05-16T19:52:24.629Z,101263
2018-05-16T19:57:16.131Z,101254
2018-05-16T20:02:07.897Z,101271
2018-05-16T20:06:59.407Z,101275
2018-05-16T20:11:51.009Z,101286
2018-05-16T20:16:42.608Z,101297
2018-05-16T20:21:34.126Z,101314
2018-05-16T20:26:25.740Z,101320
2018-05-16T20:31:18.124Z,101317
2018-05-16T20:36:09.609Z,101323
2018-05-16T20:41:01.132Z,101328
2018-05-16T20:45:52.642Z,101314
2018-05-16T20:50:44.149Z,101321
2018-05-16T20:55:35.698Z,101327
2018-05-16T21:00:27.309Z,101330
2018-05-16T21:05:19.498Z,101327
2018-05-16T21:10:10.933Z,101333
2018-05-16T21:15:02.489Z,101331
2018-05-16T21:19:54.068Z,101322
2018-05-16T21:24:45.564Z,101314
2018-05-16T21:29:37.820Z,101298
2018-05-16T21:34:30.125Z,101314
2018-05-16T21:39:21.642Z,101320
2018-05-16T21:44:13.164Z,101317
2018-05-16T21:49:04.692Z,101347
2018-05-16T21:53:56.887Z,101358
2018-05-16T21:58:48.457Z,101352
2018-05-16T22:03:40.689Z,101350
2018-05-16T22:08:32.193Z,101359
2018-05-16T22:13:24.584Z,101354
2018-05-16T22:18:16.104Z,101357
2018-05-16T22:23:08.473Z,101355
2018-05-16T22:27:59.959Z,101364
2018-05-16T22:32:57.554Z,101372
2018-05-16T22:37:55.161Z,101378
2018-05-16T22:42:47.372Z,101382
2018-05-16T22:47:38.905Z,101388
2018-05-16T22:52:30.384Z,101390
2018-05-16T22:57:22.665Z,101385
2018-05-16T23:02:14.149Z,101392
2018-05-16T23:07:06.413Z,101397
2018-05-16T23:11:57.978Z,101400
2018-05-16T23:16:50.232Z,101411
2018-05-16T23:21:41.725Z,101420
2018-05-16T23:26:33.317Z,101422
2018-05-16T23:31:24.822Z,101421
2018-05-16T23:36:17.091Z,101420
2018-05-16T23:41:09.143Z,101424
2018-05-16T23:46:00.643Z,101423
2018-05-16T23:50:52.906Z,101426
2018-05-16T23:55:45.224Z,101430
